Terminal Aerodrome Forecast
Issued by NWS

Home | Current Version | Previous Version | Text Only | Print | Product List | Glossary On
Versions: 1 2 3 4 5 6 7 8 9 10 11 12 13 14 15 16
000
FTUS43 KLSX 032100 AAA
TAFUIN
TAF AMD
KUIN 032144Z 0322/0418 20014G22KT P6SM VCSH BKN060
     FM040100 18008KT P6SM FEW120 BKN250
     FM040900 18006KT P6SM VCSH SCT120 BKN250
     FM041500 22010KT P6SM FEW050 SCT120 BKN250=

USA.gov is the U.S. government's official web portal to all federal, state and local government web resources and services.